createdAt,value
2022-12-16T00:02:20.933Z,16.57
2022-12-16T00:05:08.813Z,16.60
2022-12-16T00:08:01.938Z,16.54
2022-12-16T00:10:56.767Z,16.57
2022-12-16T00:13:50.831Z,16.56
2022-12-16T00:16:44.896Z,16.50
2022-12-16T00:19:37.878Z,16.52
2022-12-16T00:22:24.751Z,16.49
2022-12-16T00:25:18.981Z,16.54
2022-12-16T00:28:12.917Z,16.54
2022-12-16T00:30:59.901Z,16.53
2022-12-16T00:33:52.837Z,16.51
2022-12-16T00:36:39.861Z,16.52
2022-12-16T00:39:39.908Z,16.50
2022-12-16T00:42:26.776Z,16.49
2022-12-16T00:45:19.916Z,16.48
2022-12-16T00:48:08.179Z,16.47
2022-12-16T00:51:02.482Z,16.48
2022-12-16T00:53:49.326Z,16.47
2022-12-16T00:56:43.863Z,16.48
2022-12-16T00:59:36.925Z,16.45
2022-12-16T01:02:38.061Z,16.45
2022-12-16T01:05:35.878Z,16.46
2022-12-16T01:08:22.848Z,16.37
2022-12-16T01:11:17.967Z,16.42
2022-12-16T01:14:05.020Z,16.41
2022-12-16T01:16:57.905Z,16.44
2022-12-16T01:19:50.934Z,16.43
2022-12-16T01:22:43.907Z,16.42
2022-12-16T01:25:38.085Z,16.38
2022-12-16T01:28:31.907Z,16.41
2022-12-16T01:31:27.054Z,16.35
2022-12-16T01:34:20.916Z,16.39
2022-12-16T01:37:12.270Z,16.37
2022-12-16T01:40:06.894Z,16.31
2022-12-16T01:42:53.826Z,16.39
2022-12-16T01:45:46.972Z,16.37
2022-12-16T01:48:52.571Z,16.36
2022-12-16T01:51:55.138Z,16.36
2022-12-16T01:54:50.489Z,16.31
2022-12-16T01:57:52.008Z,16.33
2022-12-16T02:00:56.043Z,16.33
2022-12-16T02:03:57.897Z,16.31
2022-12-16T02:06:57.988Z,16.24
2022-12-16T02:09:44.826Z,16.34
2022-12-16T02:13:04.931Z,16.35
2022-12-16T02:16:28.005Z,16.33
2022-12-16T02:19:38.939Z,16.32
2022-12-16T02:22:37.938Z,16.29
2022-12-16T02:25:26.129Z,16.31
2022-12-16T02:28:18.942Z,16.31
2022-12-16T02:31:28.911Z,16.31
2022-12-16T02:34:35.013Z,16.25
2022-12-16T02:37:45.005Z,16.31
2022-12-16T02:40:48.932Z,16.28
2022-12-16T02:43:53.512Z,16.28
2022-12-16T02:46:59.935Z,16.23
2022-12-16T02:49:54.933Z,16.28
2022-12-16T02:52:47.990Z,16.29
2022-12-16T02:56:12.014Z,16.30
2022-12-16T02:59:49.012Z,16.30
2022-12-16T03:03:20.977Z,16.24
2022-12-16T03:06:17.146Z,16.29
2022-12-16T03:09:14.001Z,16.26
2022-12-16T03:12:06.819Z,16.25
2022-12-16T03:15:02.028Z,16.26
2022-12-16T03:17:51.303Z,16.22
2022-12-16T03:20:53.983Z,16.28
2022-12-16T03:24:06.989Z,16.24
2022-12-16T03:27:07.727Z,16.25
2022-12-16T03:30:16.029Z,16.26
2022-12-16T03:33:33.264Z,16.25
2022-12-16T03:36:31.039Z,16.23
2022-12-16T03:39:21.390Z,16.24
2022-12-16T03:42:16.032Z,16.26
2022-12-16T03:45:12.052Z,16.23
2022-12-16T03:48:06.950Z,16.23
2022-12-16T03:51:01.139Z,16.26
2022-12-16T03:53:55.112Z,16.23
2022-12-16T03:56:47.969Z,16.25
2022-12-16T03:59:34.870Z,16.23
2022-12-16T04:02:28.183Z,16.23
2022-12-16T04:05:16.117Z,16.23
2022-12-16T04:08:09.973Z,16.20
2022-12-16T04:11:15.921Z,16.19
2022-12-16T04:14:28.154Z,16.23
2022-12-16T04:17:34.019Z,16.21
2022-12-16T04:21:07.033Z,16.18
2022-12-16T04:24:22.978Z,16.14
2022-12-16T04:27:24.801Z,16.15
2022-12-16T04:30:28.354Z,16.23
2022-12-16T04:33:35.452Z,16.23
2022-12-16T04:36:47.014Z,16.25
2022-12-16T04:39:59.081Z,16.25
2022-12-16T04:43:04.911Z,16.25
2022-12-16T04:46:37.081Z,16.24
2022-12-16T04:49:42.729Z,16.21
2022-12-16T04:52:55.017Z,16.17
2022-12-16T04:56:07.056Z,16.17
2022-12-16T04:59:19.065Z,16.20
2022-12-16T05:02:31.320Z,16.20
2022-12-16T05:05:44.039Z,16.19
2022-12-16T05:08:57.074Z,16.10
2022-12-16T05:12:09.016Z,16.15
2022-12-16T05:15:21.094Z,16.14
2022-12-16T05:18:35.068Z,16.15
2022-12-16T05:21:40.383Z,16.15
2022-12-16T05:24:53.324Z,16.16
2022-12-16T05:27:58.772Z,16.15
2022-12-16T05:31:11.556Z,16.16
2022-12-16T05:34:24.027Z,16.14
2022-12-16T05:37:29.748Z,16.10
2022-12-16T05:40:42.061Z,16.15
2022-12-16T05:43:47.442Z,16.17
2022-12-16T05:47:00.127Z,16.16
2022-12-16T05:50:12.631Z,16.19
2022-12-16T05:53:18.420Z,16.19
2022-12-16T05:56:34.102Z,16.17
2022-12-16T05:59:39.513Z,16.19
2022-12-16T06:02:52.205Z,16.10
2022-12-16T06:06:03.893Z,16.16
2022-12-16T06:09:16.088Z,16.16
2022-12-16T06:12:28.073Z,16.12
2022-12-16T06:15:57.243Z,16.18
2022-12-16T06:19:10.089Z,16.16
2022-12-16T06:22:22.096Z,16.21
2022-12-16T06:25:34.071Z,16.25
2022-12-16T06:28:46.211Z,16.38
2022-12-16T06:31:52.017Z,16.47
2022-12-16T06:35:04.067Z,16.55
2022-12-16T06:38:09.543Z,16.59
2022-12-16T06:41:22.103Z,16.67
2022-12-16T06:44:34.112Z,16.67
2022-12-16T06:47:46.131Z,16.70
2022-12-16T06:50:58.113Z,16.69
2022-12-16T06:54:03.846Z,16.73
2022-12-16T06:57:16.150Z,16.71
2022-12-16T07:00:22.396Z,16.73
2022-12-16T07:03:41.781Z,16.78
2022-12-16T07:06:54.100Z,16.92
2022-12-16T07:09:59.432Z,16.96
2022-12-16T07:13:11.156Z,17.00
2022-12-16T07:16:17.261Z,17.01
2022-12-16T07:19:29.114Z,17.01
2022-12-16T07:22:34.913Z,16.99
2022-12-16T07:25:47.092Z,16.94
2022-12-16T07:28:52.830Z,16.95
2022-12-16T07:32:05.202Z,16.95
2022-12-16T07:35:17.838Z,16.94
2022-12-16T07:38:23.390Z,16.98
2022-12-16T07:41:35.096Z,17.08
2022-12-16T07:44:40.732Z,17.14
2022-12-16T07:47:53.099Z,17.12
2022-12-16T07:51:07.714Z,17.18
2022-12-16T07:54:21.147Z,17.18
2022-12-16T07:57:33.101Z,17.17
2022-12-16T08:00:39.008Z,17.13
2022-12-16T08:03:57.254Z,17.12
2022-12-16T08:07:02.856Z,17.13
2022-12-16T08:10:15.399Z,17.10
2022-12-16T08:13:30.296Z,17.07
2022-12-16T08:16:35.983Z,17.16
2022-12-16T08:19:48.175Z,17.18
2022-12-16T08:22:53.384Z,17.21
2022-12-16T08:26:07.141Z,17.33
2022-12-16T08:32:44.338Z,17.14
2022-12-16T08:35:57.145Z,17.19
2022-12-16T08:39:02.557Z,17.18
2022-12-16T08:42:15.365Z,17.16
2022-12-16T08:45:20.842Z,17.22
2022-12-16T08:48:32.163Z,17.16
2022-12-16T08:51:44.161Z,17.28
2022-12-16T08:54:56.170Z,17.21
2022-12-16T08:58:01.898Z,17.31
2022-12-16T09:01:14.334Z,17.29
2022-12-16T09:04:27.479Z,17.21
2022-12-16T09:07:39.200Z,17.26
2022-12-16T09:10:51.236Z,17.27
2022-12-16T09:14:03.223Z,17.28
2022-12-16T09:17:21.166Z,17.28
2022-12-16T09:20:34.161Z,17.27
2022-12-16T09:23:39.349Z,17.28
2022-12-16T09:26:54.192Z,17.24
2022-12-16T09:30:06.197Z,17.23
2022-12-16T09:33:18.160Z,17.26
2022-12-16T09:36:31.231Z,17.27
2022-12-16T09:39:54.191Z,17.29
2022-12-16T09:43:27.244Z,17.34
2022-12-16T09:46:49.238Z,17.33
2022-12-16T09:50:11.370Z,17.34
2022-12-16T09:53:27.208Z,17.30
2022-12-16T09:56:44.174Z,17.24
2022-12-16T10:00:02.218Z,17.32
2022-12-16T10:03:23.504Z,17.32
2022-12-16T10:07:06.558Z,17.33
2022-12-16T10:10:53.257Z,17.34
2022-12-16T10:14:23.179Z,17.31
2022-12-16T10:17:41.251Z,17.27
2022-12-16T10:21:17.223Z,17.29
2022-12-16T10:25:06.920Z,17.28
2022-12-16T10:28:40.214Z,17.32
2022-12-16T10:31:53.228Z,17.34
2022-12-16T10:34:59.538Z,17.32
2022-12-16T10:38:13.262Z,17.32
2022-12-16T10:41:20.108Z,17.32
2022-12-16T10:44:50.189Z,17.30
2022-12-16T10:48:05.267Z,17.31
2022-12-16T10:51:18.826Z,17.40
2022-12-16T10:54:46.209Z,17.43
2022-12-16T10:58:08.198Z,17.50
2022-12-16T11:01:20.400Z,17.49
2022-12-16T11:05:00.001Z,17.54
2022-12-16T11:08:12.215Z,17.54
2022-12-16T11:11:38.213Z,17.45
2022-12-16T11:14:59.523Z,17.50
2022-12-16T11:18:31.286Z,17.47
2022-12-16T11:21:47.313Z,17.48
2022-12-16T11:24:53.848Z,17.51
2022-12-16T11:28:06.304Z,17.57
2022-12-16T11:31:16.017Z,17.58
2022-12-16T11:34:29.283Z,17.57
2022-12-16T11:37:41.243Z,17.52
2022-12-16T11:40:55.379Z,17.57
2022-12-16T11:44:13.290Z,17.53
2022-12-16T11:47:18.582Z,17.53
2022-12-16T11:50:37.301Z,17.55
2022-12-16T11:54:06.253Z,17.54
2022-12-16T11:57:13.325Z,17.55
2022-12-16T12:00:27.319Z,17.56
2022-12-16T12:03:57.417Z,17.55
2022-12-16T12:07:26.357Z,17.53
2022-12-16T12:10:38.285Z,17.57
2022-12-16T12:13:54.517Z,17.58
2022-12-16T12:17:16.370Z,17.56
2022-12-16T12:20:46.263Z,17.57
2022-12-16T12:24:11.422Z,17.53
2022-12-16T12:27:42.362Z,17.52
2022-12-16T12:30:58.254Z,17.54
2022-12-16T12:34:23.268Z,17.47
2022-12-16T12:38:14.206Z,17.51
2022-12-16T12:41:43.310Z,17.41
2022-12-16T12:45:09.722Z,17.38
2022-12-16T12:48:47.315Z,17.46
2022-12-16T12:51:58.431Z,17.50
2022-12-16T12:55:47.262Z,17.52
2022-12-16T12:58:54.890Z,17.57
2022-12-16T13:02:08.388Z,17.60
2022-12-16T13:05:27.938Z,17.56
2022-12-16T13:09:08.277Z,17.48
2022-12-16T13:12:25.776Z,17.46
2022-12-16T13:16:02.382Z,17.45
2022-12-16T13:19:59.015Z,17.47
2022-12-16T13:23:12.347Z,17.45
2022-12-16T13:26:24.225Z,17.42
2022-12-16T13:29:46.323Z,17.42
2022-12-16T13:33:15.314Z,17.40
2022-12-16T13:36:27.364Z,17.38
2022-12-16T13:39:51.318Z,17.41
2022-12-16T13:42:59.429Z,17.60
2022-12-16T13:46:26.296Z,17.62
2022-12-16T13:50:16.696Z,17.61
2022-12-16T13:53:30.627Z,17.62
2022-12-16T13:56:51.375Z,17.60
2022-12-16T13:59:59.836Z,17.54
2022-12-16T14:03:17.473Z,17.50
2022-12-16T14:06:34.323Z,17.45
2022-12-16T14:09:59.408Z,17.49
2022-12-16T14:13:32.649Z,17.52
2022-12-16T14:16:38.927Z,17.47
2022-12-16T14:20:00.407Z,17.44
2022-12-16T14:23:47.218Z,17.42
2022-12-16T14:26:46.440Z,17.42
2022-12-16T14:29:58.413Z,17.51
2022-12-16T14:33:04.168Z,17.52
2022-12-16T14:36:16.496Z,17.53
2022-12-16T14:39:22.546Z,17.46
2022-12-16T14:42:52.366Z,17.48
2022-12-16T14:46:04.814Z,17.43
2022-12-16T14:49:10.725Z,17.40
2022-12-16T14:52:22.350Z,17.41
2022-12-16T14:55:44.777Z,17.43
2022-12-16T14:58:57.375Z,17.42
2022-12-16T15:02:14.071Z,17.39
2022-12-16T15:05:42.558Z,17.35
2022-12-16T15:09:13.398Z,17.29
2022-12-16T15:12:19.377Z,17.20
2022-12-16T15:15:36.393Z,17.19
2022-12-16T15:18:50.840Z,17.19
2022-12-16T15:22:02.374Z,17.22
2022-12-16T15:25:14.395Z,17.35
2022-12-16T15:28:20.047Z,17.47
2022-12-16T15:31:39.485Z,17.54
2022-12-16T15:34:49.996Z,17.69
2022-12-16T15:38:04.913Z,17.66
2022-12-16T15:41:37.391Z,17.66
2022-12-16T15:44:46.075Z,17.52
2022-12-16T15:48:01.385Z,17.55
2022-12-16T15:51:18.435Z,17.46
2022-12-16T15:54:30.542Z,17.55
2022-12-16T15:57:59.388Z,17.57
2022-12-16T16:01:16.628Z,17.60
2022-12-16T16:04:29.388Z,17.77
2022-12-16T16:07:37.138Z,17.74
2022-12-16T16:10:50.391Z,17.68
2022-12-16T16:14:08.327Z,17.60
2022-12-16T16:17:24.402Z,17.60
2022-12-16T16:20:41.440Z,17.64
2022-12-16T16:23:47.484Z,17.73
2022-12-16T16:26:59.394Z,17.81
2022-12-16T16:30:11.398Z,17.77
2022-12-16T16:33:23.394Z,17.78
2022-12-16T16:36:40.503Z,17.72
2022-12-16T16:39:52.407Z,17.65
2022-12-16T16:43:08.488Z,17.68
2022-12-16T16:46:21.603Z,17.76
2022-12-16T16:49:38.446Z,17.78
2022-12-16T16:52:52.448Z,17.77
2022-12-16T16:56:04.725Z,17.73
2022-12-16T16:59:16.477Z,17.70
2022-12-16T17:02:22.502Z,17.67
2022-12-16T17:05:42.527Z,17.61
2022-12-16T17:08:47.852Z,17.77
2022-12-16T17:12:07.487Z,17.81
2022-12-16T17:15:12.652Z,17.79
2022-12-16T17:18:24.526Z,17.78
2022-12-16T17:21:36.472Z,17.78
2022-12-16T17:24:51.495Z,17.80
2022-12-16T17:28:10.430Z,17.79
2022-12-16T17:31:22.562Z,17.81
2022-12-16T17:34:28.009Z,17.82
2022-12-16T17:37:40.550Z,17.77
2022-12-16T17:40:46.614Z,17.78
2022-12-16T17:43:58.445Z,17.72
2022-12-16T17:47:10.447Z,17.68
2022-12-16T17:50:22.545Z,17.76
2022-12-16T17:53:34.744Z,17.77
2022-12-16T17:56:46.549Z,17.80
2022-12-16T17:59:59.550Z,17.77
2022-12-16T18:03:11.745Z,17.77
2022-12-16T18:06:31.483Z,17.75
2022-12-16T18:09:43.518Z,17.74
2022-12-16T18:12:50.331Z,17.63
2022-12-16T18:16:02.579Z,17.65
2022-12-16T18:19:09.439Z,17.64
2022-12-16T18:22:21.527Z,17.59
2022-12-16T18:25:27.112Z,17.57
2022-12-16T18:28:39.511Z,17.53
2022-12-16T18:31:51.566Z,17.44
2022-12-16T18:35:03.531Z,17.44
2022-12-16T18:38:16.756Z,17.42
2022-12-16T18:41:39.487Z,17.37
2022-12-16T18:44:54.881Z,17.41
2022-12-16T18:48:03.294Z,17.37
2022-12-16T18:51:22.515Z,17.43
2022-12-16T18:54:34.509Z,17.39
2022-12-16T18:57:40.107Z,17.38
2022-12-16T19:00:52.558Z,17.36
2022-12-16T19:04:04.240Z,17.38
2022-12-16T19:07:23.490Z,17.37
2022-12-16T19:10:35.509Z,17.35
2022-12-16T19:13:47.512Z,17.37
2022-12-16T19:16:59.544Z,17.36
2022-12-16T19:20:11.757Z,17.35
2022-12-16T19:23:17.463Z,17.29
2022-12-16T19:26:29.560Z,17.36
2022-12-16T19:29:41.535Z,17.41
2022-12-16T19:32:47.011Z,17.44
2022-12-16T19:35:59.534Z,17.44
2022-12-16T19:39:11.503Z,17.43
2022-12-16T19:42:23.572Z,17.40
2022-12-16T19:45:35.775Z,17.40
2022-12-16T19:48:48.581Z,17.40
2022-12-16T19:51:53.884Z,17.42
2022-12-16T19:55:11.666Z,17.45
2022-12-16T19:58:27.581Z,17.45
2022-12-16T20:01:33.320Z,17.44
2022-12-16T20:04:45.527Z,17.40
2022-12-16T20:08:03.579Z,17.41
2022-12-16T20:11:09.307Z,17.37
2022-12-16T20:14:22.576Z,17.49
2022-12-16T20:17:35.557Z,17.51
2022-12-16T20:20:47.568Z,17.50
2022-12-16T20:23:59.599Z,17.48
2022-12-16T20:27:11.639Z,17.42
2022-12-16T20:30:23.652Z,17.45
2022-12-16T20:33:34.218Z,17.47
2022-12-16T20:36:46.596Z,17.53
2022-12-16T20:39:56.791Z,17.50
2022-12-16T20:43:09.678Z,17.58
2022-12-16T20:46:38.629Z,17.55
2022-12-16T20:49:44.025Z,17.48
2022-12-16T20:52:55.590Z,17.53
2022-12-16T20:56:08.551Z,17.53
2022-12-16T20:59:24.610Z,17.55
2022-12-16T21:02:33.624Z,17.55
2022-12-16T21:05:53.589Z,17.54
2022-12-16T21:09:08.638Z,17.51
2022-12-16T21:12:15.067Z,17.51
2022-12-16T21:15:34.991Z,17.51
2022-12-16T21:18:40.527Z,17.53
2022-12-16T21:21:52.598Z,17.54
2022-12-16T21:25:05.997Z,17.56
2022-12-16T21:28:15.758Z,17.50
2022-12-16T21:31:29.020Z,17.52
2022-12-16T21:34:34.369Z,17.49
2022-12-16T21:37:46.625Z,17.50
2022-12-16T21:40:58.651Z,17.45
2022-12-16T21:44:08.634Z,17.52
2022-12-16T21:47:18.605Z,17.49
2022-12-16T21:50:23.152Z,17.50
2022-12-16T21:53:33.615Z,17.49
2022-12-16T21:56:37.561Z,17.46
2022-12-16T21:59:48.615Z,17.43
2022-12-16T22:02:52.606Z,17.45
2022-12-16T22:06:09.659Z,17.48
2022-12-16T22:09:19.656Z,17.47
2022-12-16T22:15:43.645Z,17.43
2022-12-16T22:18:47.426Z,17.41
2022-12-16T22:21:57.690Z,17.36
2022-12-16T22:25:14.234Z,17.35
2022-12-16T22:28:18.521Z,17.29
2022-12-16T22:31:29.990Z,17.26
2022-12-16T22:34:34.165Z,17.24
2022-12-16T22:37:44.695Z,17.21
2022-12-16T22:40:48.832Z,17.17
2022-12-16T22:43:59.679Z,17.14
2022-12-16T22:47:03.845Z,17.12
2022-12-16T22:50:14.674Z,17.09
2022-12-16T22:53:24.672Z,17.06
2022-12-16T22:56:29.021Z,17.01
2022-12-16T22:59:38.661Z,16.98
2022-12-16T23:02:42.603Z,16.90
2022-12-16T23:05:59.675Z,16.91
2022-12-16T23:09:10.702Z,16.87
2022-12-16T23:12:21.627Z,16.84
2022-12-16T23:15:33.000Z,16.86
2022-12-16T23:18:44.287Z,16.82
2022-12-16T23:21:54.672Z,16.74
2022-12-16T23:25:00.603Z,16.78
2022-12-16T23:28:11.641Z,16.73
2022-12-16T23:31:22.901Z,16.70
2022-12-16T23:34:27.096Z,16.69
2022-12-16T23:37:37.714Z,16.65
2022-12-16T23:40:41.682Z,16.63
2022-12-16T23:43:52.735Z,16.63
2022-12-16T23:47:02.740Z,16.62
2022-12-16T23:50:15.764Z,16.64
2022-12-16T23:53:30.806Z,16.57
2022-12-16T23:56:41.721Z,16.53
2022-12-16T23:59:52.705Z,16.54
